createdAt,value
2022-09-23T00:01:08.294Z,101187.13
2022-09-23T00:03:37.185Z,101189.97
2022-09-23T00:06:10.805Z,101185.75
2022-09-23T00:08:38.235Z,101181.66
2022-09-23T00:11:13.722Z,101178.31
2022-09-23T00:13:41.997Z,101180.47
2022-09-23T00:16:11.101Z,101178.94
2022-09-23T00:18:38.076Z,101178.41
2022-09-23T00:21:12.082Z,101182.28
2022-09-23T00:23:40.516Z,101172.81
2022-09-23T00:26:08.636Z,101168.63
2022-09-23T00:28:35.795Z,101168.91
2022-09-23T00:31:06.932Z,101163.72
2022-09-23T00:33:33.327Z,101168.41
2022-09-23T00:36:01.872Z,101159.63
2022-09-23T00:38:28.790Z,101164.31
2022-09-23T00:40:55.289Z,101164.66
2022-09-23T00:43:44.695Z,101162.13
2022-09-23T00:46:39.883Z,101168.50
2022-09-23T00:49:11.066Z,101155.38
2022-09-23T00:51:41.883Z,101155.53
2022-09-23T00:54:09.053Z,101154.84
2022-09-23T00:56:36.926Z,101155.84
2022-09-23T00:59:04.362Z,101150.44
2022-09-23T01:01:30.801Z,101149.63
2022-09-23T01:03:58.026Z,101145.06
2022-09-23T01:06:24.511Z,101145.94
2022-09-23T01:08:51.669Z,101147.63
2022-09-23T01:11:18.673Z,101152.84
2022-09-23T01:14:04.586Z,101150.81
2022-09-23T01:16:43.505Z,101147.81
2022-09-23T01:19:44.931Z,101137.75
2022-09-23T01:22:40.296Z,101141.13
2022-09-23T01:25:09.712Z,101144.50
2022-09-23T01:28:26.719Z,101141.63
2022-09-23T01:31:19.001Z,101142.19
2022-09-23T01:34:02.134Z,101141.16
2022-09-23T01:36:42.325Z,101137.50
2022-09-23T01:39:16.564Z,101137.31
2022-09-23T01:42:18.066Z,101131.78
2022-09-23T01:44:51.782Z,101116.47
2022-09-23T01:47:42.297Z,101124.38
2022-09-23T01:50:35.221Z,101128.06
2022-09-23T01:53:06.094Z,101126.41
2022-09-23T01:55:37.859Z,101126.41
2022-09-23T01:58:12.369Z,101113.94
2022-09-23T02:00:43.829Z,101115.97
2022-09-23T02:03:19.200Z,101115.09
2022-09-23T02:05:51.463Z,101116.94
2022-09-23T02:08:23.756Z,101105.50
2022-09-23T02:11:04.556Z,101110.03
2022-09-23T02:14:10.466Z,101110.22
2022-09-23T02:16:44.418Z,101104.13
2022-09-23T02:19:24.874Z,101107.81
2022-09-23T02:22:03.044Z,101106.13
2022-09-23T02:24:32.969Z,101101.91
2022-09-23T02:27:09.401Z,101102.94
2022-09-23T02:29:53.934Z,101097.69
2022-09-23T02:32:36.208Z,101103.06
2022-09-23T02:35:26.140Z,101087.25
2022-09-23T02:38:09.509Z,101089.94
2022-09-23T02:40:42.002Z,101081.03
2022-09-23T02:43:32.064Z,101086.56
2022-09-23T02:45:58.727Z,101090.28
2022-09-23T02:48:46.530Z,101090.41
2022-09-23T02:51:13.280Z,101087.03
2022-09-23T02:53:39.964Z,101088.91
2022-09-23T02:56:20.088Z,101088.91
2022-09-23T02:58:52.342Z,101083.50
2022-09-23T03:01:32.518Z,101077.44
2022-09-23T03:04:25.763Z,101065.00
2022-09-23T03:07:19.355Z,101069.56
2022-09-23T03:09:57.284Z,101062.47
2022-09-23T03:12:38.709Z,101059.13
2022-09-23T03:15:33.281Z,101055.56
2022-09-23T03:18:11.052Z,101052.88
2022-09-23T03:20:46.320Z,101054.72
2022-09-23T03:23:15.386Z,101058.25
2022-09-23T03:25:45.711Z,101056.56
2022-09-23T03:28:14.196Z,101059.94
2022-09-23T03:30:43.578Z,101055.09
2022-09-23T03:33:13.083Z,101049.69
2022-09-23T03:36:07.642Z,101043.34
2022-09-23T03:38:39.094Z,101035.91
2022-09-23T03:41:09.452Z,101036.09
2022-09-23T03:43:38.839Z,101036.78
2022-09-23T03:46:07.150Z,101034.09
2022-09-23T03:48:33.676Z,101037.63
2022-09-23T03:51:13.558Z,101037.44
2022-09-23T03:53:39.900Z,101036.63
2022-09-23T03:56:06.242Z,101031.22
2022-09-23T03:58:32.859Z,101034.94
2022-09-23T04:00:59.404Z,101028.72
2022-09-23T04:03:28.038Z,101028.03
2022-09-23T04:05:54.357Z,101028.19
2022-09-23T04:08:20.699Z,101028.34
2022-09-23T04:10:49.056Z,101015.19
2022-09-23T04:13:17.109Z,101021.78
2022-09-23T04:15:43.454Z,101019.38
2022-09-23T04:18:10.150Z,101026.78
2022-09-23T04:20:39.178Z,101019.88
2022-09-23T04:23:05.496Z,101013.13
2022-09-23T04:25:32.296Z,101009.75
2022-09-23T04:27:58.715Z,101013.78
2022-09-23T04:30:25.063Z,101004.19
2022-09-23T04:32:52.620Z,101005.34
2022-09-23T04:35:18.963Z,101005.66
2022-09-23T04:37:47.876Z,101007.66
2022-09-23T04:40:14.388Z,101000.75
2022-09-23T04:42:41.426Z,100998.41
2022-09-23T04:45:08.224Z,101005.59
2022-09-23T04:47:34.601Z,101003.22
2022-09-23T04:50:00.983Z,100998.16
2022-09-23T04:52:27.310Z,100999.16
2022-09-23T04:54:53.647Z,100995.91
2022-09-23T04:57:19.980Z,100992.56
2022-09-23T04:59:47.020Z,101002.78
2022-09-23T05:02:13.454Z,101000.41
2022-09-23T05:04:40.677Z,100991.00
2022-09-23T05:07:07.229Z,100992.97
2022-09-23T05:09:39.890Z,100991.44
2022-09-23T05:12:06.539Z,100985.69
2022-09-23T05:14:32.885Z,100985.19
2022-09-23T05:16:59.894Z,100977.41
2022-09-23T05:19:26.266Z,100979.44
2022-09-23T05:21:52.622Z,100983.28
2022-09-23T05:24:19.255Z,100980.03
2022-09-23T05:26:45.602Z,100981.06
2022-09-23T05:29:11.945Z,100982.03
2022-09-23T05:31:38.319Z,100985.59
2022-09-23T05:34:05.573Z,100981.06
2022-09-23T05:36:38.200Z,100970.31
2022-09-23T05:39:06.326Z,100985.41
2022-09-23T05:41:33.859Z,100981.56
2022-09-23T05:44:00.433Z,100986.63
2022-09-23T05:46:29.676Z,100989.16
2022-09-23T05:49:02.124Z,100994.22
2022-09-23T05:51:31.369Z,101001.97
2022-09-23T05:53:59.016Z,101003.50
2022-09-23T05:56:27.407Z,101004.06
2022-09-23T05:58:55.661Z,101001.03
2022-09-23T06:01:28.655Z,101004.44
2022-09-23T06:03:57.386Z,101006.78
2022-09-23T06:06:41.300Z,101006.47
2022-09-23T06:09:13.349Z,101001.59
2022-09-23T06:11:40.230Z,101012.03
2022-09-23T06:14:14.713Z,101006.22
2022-09-23T06:16:41.222Z,101013.97
2022-09-23T06:19:07.689Z,101012.66
2022-09-23T06:21:36.533Z,101006.81
2022-09-23T06:24:03.245Z,101007.34
2022-09-23T06:26:32.667Z,100995.09
2022-09-23T06:28:59.776Z,101001.69
2022-09-23T06:31:26.182Z,100995.00
2022-09-23T06:34:01.952Z,100999.72
2022-09-23T06:36:41.959Z,100994.69
2022-09-23T06:39:09.987Z,100995.06
2022-09-23T06:41:36.418Z,100992.72
2022-09-23T06:44:03.059Z,100990.41
2022-09-23T06:46:31.149Z,100999.66
2022-09-23T06:48:57.655Z,100995.47
2022-09-23T06:51:25.179Z,100988.78
2022-09-23T06:53:51.585Z,100998.88
2022-09-23T06:56:19.827Z,100997.38
2022-09-23T06:58:58.252Z,101008.34
2022-09-23T07:01:24.684Z,101003.97
2022-09-23T07:03:51.907Z,100999.59
2022-09-23T07:06:18.263Z,100989.03
2022-09-23T07:08:46.985Z,100989.19
2022-09-23T07:11:14.786Z,100995.25
2022-09-23T07:13:42.165Z,100994.44
2022-09-23T07:16:10.663Z,100988.09
2022-09-23T07:18:37.802Z,100988.09
2022-09-23T07:21:13.197Z,100994.97
2022-09-23T07:23:39.574Z,100992.28
2022-09-23T07:26:07.736Z,100992.94
2022-09-23T07:28:36.331Z,100991.91
2022-09-23T07:31:04.664Z,100988.00
2022-09-23T07:33:33.403Z,100987.81
2022-09-23T07:36:07.514Z,100998.91
2022-09-23T07:38:34.127Z,100995.00
2022-09-23T07:41:05.475Z,100994.44
2022-09-23T07:43:32.771Z,100991.19
2022-09-23T07:46:02.978Z,100997.91
2022-09-23T07:48:34.161Z,100998.34
2022-09-23T07:51:05.587Z,100996.72
2022-09-23T07:53:32.371Z,100997.81
2022-09-23T07:55:59.360Z,100997.06
2022-09-23T07:58:25.882Z,100994.59
2022-09-23T08:00:53.827Z,100996.50
2022-09-23T08:03:20.365Z,100998.41
2022-09-23T08:05:46.729Z,100992.22
2022-09-23T08:08:14.046Z,100996.63
2022-09-23T08:10:40.463Z,100992.06
2022-09-23T08:13:06.869Z,100997.28
2022-09-23T08:15:33.676Z,100989.00
2022-09-23T08:18:00.786Z,100992.31
2022-09-23T08:20:47.694Z,100993.78
2022-09-23T08:23:16.110Z,100988.63
2022-09-23T08:25:46.165Z,100984.63
2022-09-23T08:28:16.715Z,100981.47
2022-09-23T08:30:44.363Z,100981.19
2022-09-23T08:33:14.255Z,100981.56
2022-09-23T08:35:41.265Z,100972.69
2022-09-23T08:38:08.475Z,100983.66
2022-09-23T08:40:41.889Z,100978.31
2022-09-23T08:43:28.089Z,100985.06
2022-09-23T08:45:57.261Z,100971.31
2022-09-23T08:48:46.549Z,100974.28
2022-09-23T08:51:17.157Z,100973.28
2022-09-23T08:53:45.461Z,100971.44
2022-09-23T08:56:17.325Z,100979.41
2022-09-23T08:59:00.524Z,100977.75
2022-09-23T09:01:29.859Z,100977.16
2022-09-23T09:04:01.348Z,100973.63
2022-09-23T09:06:41.908Z,100970.28
2022-09-23T09:09:25.427Z,100969.31
2022-09-23T09:12:00.269Z,100968.69
2022-09-23T09:14:35.772Z,100968.91
2022-09-23T09:17:10.172Z,100971.63
2022-09-23T09:19:47.294Z,100963.06
2022-09-23T09:22:21.224Z,100967.47
2022-09-23T09:24:49.363Z,100959.94
2022-09-23T09:27:15.783Z,100964.53
2022-09-23T09:29:49.577Z,100963.94
2022-09-23T09:32:47.234Z,100956.63
2022-09-23T09:35:42.174Z,100951.16
2022-09-23T09:38:09.071Z,100956.22
2022-09-23T09:40:41.748Z,100953.69
2022-09-23T09:43:08.188Z,100948.66
2022-09-23T09:46:16.164Z,100945.72
2022-09-23T09:49:03.291Z,100948.66
2022-09-23T09:51:29.698Z,100949.53
2022-09-23T09:54:17.039Z,100940.06
2022-09-23T09:56:44.950Z,100945.72
2022-09-23T09:59:23.390Z,100941.94
2022-09-23T10:01:50.782Z,100942.13
2022-09-23T10:04:33.820Z,100931.84
2022-09-23T10:07:09.413Z,100931.00
2022-09-23T10:09:37.710Z,100932.84
2022-09-23T10:12:18.307Z,100929.88
2022-09-23T10:14:46.817Z,100924.63
2022-09-23T10:17:24.379Z,100915.56
2022-09-23T10:20:00.181Z,100918.50
2022-09-23T10:22:32.424Z,100921.63
2022-09-23T10:25:08.241Z,100915.31
2022-09-23T10:27:36.305Z,100914.88
2022-09-23T10:30:21.744Z,100921.38
2022-09-23T10:32:49.630Z,100911.09
2022-09-23T10:35:22.518Z,100919.44
2022-09-23T10:37:57.007Z,100917.09
2022-09-23T10:40:48.128Z,100907.66
2022-09-23T10:43:54.847Z,100914.34
2022-09-23T10:46:45.710Z,100913.91
2022-09-23T10:49:21.144Z,100902.56
2022-09-23T10:52:11.978Z,100901.91
2022-09-23T10:54:51.284Z,100898.53
2022-09-23T10:57:36.438Z,100894.91
2022-09-23T11:00:32.464Z,100895.69
2022-09-23T11:03:25.235Z,100892.69
2022-09-23T11:06:04.151Z,100883.84
2022-09-23T11:08:50.872Z,100888.03
2022-09-23T11:11:49.353Z,100882.72
2022-09-23T11:14:42.903Z,100879.53
2022-09-23T11:17:33.916Z,100874.47
2022-09-23T11:20:11.905Z,100872.34
2022-09-23T11:22:45.531Z,100875.47
2022-09-23T11:25:24.824Z,100865.19
2022-09-23T11:28:29.447Z,100871.25
2022-09-23T11:31:21.223Z,100865.56
2022-09-23T11:33:56.902Z,100867.00
2022-09-23T11:36:30.932Z,100863.00
2022-09-23T11:39:00.191Z,100867.16
2022-09-23T11:41:46.709Z,100872.16
2022-09-23T11:44:19.917Z,100856.19
2022-09-23T11:46:59.331Z,100862.03
2022-09-23T11:49:39.299Z,100853.16
2022-09-23T11:52:19.468Z,100846.16
2022-09-23T11:55:21.624Z,100853.69
2022-09-23T11:57:53.538Z,100849.19
2022-09-23T12:00:23.427Z,100850.44
2022-09-23T12:03:06.418Z,100850.78
2022-09-23T12:05:39.606Z,100846.56
2022-09-23T12:10:45.903Z,100854.44
2022-09-23T12:13:27.094Z,100848.03
2022-09-23T12:16:31.059Z,100851.75
2022-09-23T12:19:22.354Z,100844.34
2022-09-23T12:22:30.489Z,100839.38
2022-09-23T12:25:18.432Z,100841.81
2022-09-23T12:27:49.655Z,100835.41
2022-09-23T12:30:26.685Z,100837.44
2022-09-23T12:33:05.997Z,100828.53
2022-09-23T12:35:39.260Z,100831.41
2022-09-23T12:38:15.294Z,100827.13
2022-09-23T12:40:43.482Z,100828.56
2022-09-23T12:43:30.228Z,100814.22
2022-09-23T12:46:26.098Z,100815.63
2022-09-23T12:48:57.264Z,100809.69
2022-09-23T12:51:25.544Z,100819.56
2022-09-23T12:53:57.635Z,100813.84
2022-09-23T12:56:48.407Z,100812.56
2022-09-23T12:59:31.407Z,100807.44
2022-09-23T13:02:11.157Z,100805.31
2022-09-23T13:05:14.360Z,100803.19
2022-09-23T13:07:45.379Z,100799.34
2022-09-23T13:10:18.700Z,100799.34
2022-09-23T13:12:46.658Z,100787.81
2022-09-23T13:15:28.669Z,100789.50
2022-09-23T13:18:20.652Z,100784.25
2022-09-23T13:20:51.596Z,100792.69
2022-09-23T13:23:30.292Z,100795.66
2022-09-23T13:26:08.930Z,100777.22
2022-09-23T13:28:53.715Z,100792.19
2022-09-23T13:31:21.239Z,100777.56
2022-09-23T13:33:54.023Z,100779.97
2022-09-23T13:36:21.193Z,100772.44
2022-09-23T13:38:48.225Z,100766.38
2022-09-23T13:41:18.068Z,100770.19
2022-09-23T13:43:58.625Z,100759.47
2022-09-23T13:46:28.428Z,100764.13
2022-09-23T13:48:55.722Z,100762.47
2022-09-23T13:51:26.755Z,100766.63
2022-09-23T13:54:04.412Z,100760.69
2022-09-23T13:56:32.933Z,100757.47
2022-09-23T13:59:23.548Z,100759.25
2022-09-23T14:01:50.035Z,100757.34
2022-09-23T14:04:24.906Z,100749.25
2022-09-23T14:06:52.465Z,100754.25
2022-09-23T14:09:23.343Z,100742.88
2022-09-23T14:11:51.786Z,100743.44
2022-09-23T14:14:18.449Z,100743.81
2022-09-23T14:16:44.949Z,100749.63
2022-09-23T14:19:20.954Z,100743.47
2022-09-23T14:21:49.103Z,100746.09
2022-09-23T14:24:37.688Z,100740.16
2022-09-23T14:27:07.042Z,100730.88
2022-09-23T14:29:37.064Z,100732.53
2022-09-23T14:32:13.394Z,100731.69
2022-09-23T14:34:49.056Z,100731.47
2022-09-23T14:37:37.518Z,100730.63
2022-09-23T14:40:09.728Z,100733.38
2022-09-23T14:42:43.434Z,100719.91
2022-09-23T14:45:15.397Z,100723.75
2022-09-23T14:47:49.772Z,100724.78
2022-09-23T14:50:39.365Z,100724.44
2022-09-23T14:53:46.820Z,100716.47
2022-09-23T14:56:17.155Z,100718.56
2022-09-23T14:58:58.216Z,100710.84
2022-09-23T15:01:32.462Z,100717.63
2022-09-23T15:04:22.093Z,100708.00
2022-09-23T15:06:53.679Z,100715.03
2022-09-23T15:09:26.939Z,100716.09
2022-09-23T15:12:18.845Z,100706.44
2022-09-23T15:14:51.239Z,100702.88
2022-09-23T15:17:30.032Z,100704.19
2022-09-23T15:20:00.685Z,100706.09
2022-09-23T15:22:27.264Z,100704.44
2022-09-23T15:24:55.107Z,100704.69
2022-09-23T15:27:27.404Z,100698.38
2022-09-23T15:29:54.109Z,100702.66
2022-09-23T15:32:21.620Z,100689.44
2022-09-23T15:34:51.508Z,100688.84
2022-09-23T15:37:22.949Z,100689.59
2022-09-23T15:39:49.366Z,100696.59
2022-09-23T15:42:16.365Z,100691.00
2022-09-23T15:44:42.743Z,100690.66
2022-09-23T15:47:15.336Z,100686.47
2022-09-23T15:49:45.964Z,100683.63
2022-09-23T15:52:13.008Z,100689.19
2022-09-23T15:54:39.865Z,100685.50
2022-09-23T15:57:06.202Z,100683.72
2022-09-23T15:59:35.391Z,100680.59
2022-09-23T16:02:07.812Z,100684.84
2022-09-23T16:04:38.222Z,100680.91
2022-09-23T16:07:05.536Z,100683.53
2022-09-23T16:09:32.180Z,100690.53
2022-09-23T16:14:24.852Z,100687.31
2022-09-23T16:16:51.634Z,100686.91
2022-09-23T16:19:18.119Z,100685.72
2022-09-23T16:21:44.706Z,100688.31
2022-09-23T16:24:18.806Z,100683.31
2022-09-23T16:26:47.995Z,100679.59
2022-09-23T16:29:14.700Z,100684.09
2022-09-23T16:31:41.220Z,100676.84
2022-09-23T16:34:07.668Z,100684.88
2022-09-23T16:36:38.417Z,100682.00
2022-09-23T16:39:07.759Z,100682.09
2022-09-23T16:41:34.433Z,100676.69
2022-09-23T16:44:04.753Z,100684.72
2022-09-23T16:46:31.772Z,100683.97
2022-09-23T16:48:59.131Z,100677.53
2022-09-23T16:52:44.504Z,100687.25
2022-09-23T16:55:15.485Z,100682.91
2022-09-23T16:57:43.256Z,100686.31
2022-09-23T17:07:44.342Z,100698.66
2022-09-23T17:10:35.897Z,100699.56
2022-09-23T17:13:02.257Z,100697.13
2022-09-23T17:15:28.730Z,100692.34
2022-09-23T17:17:55.074Z,100703.28
2022-09-23T17:20:21.489Z,100698.53
2022-09-23T17:22:48.201Z,100695.63
2022-09-23T17:25:15.756Z,100690.81
2022-09-23T17:27:42.132Z,100691.47
2022-09-23T17:30:09.263Z,100686.94
2022-09-23T17:32:35.696Z,100694.94
2022-09-23T17:35:04.634Z,100697.50
2022-09-23T17:37:32.172Z,100689.16
2022-09-23T17:39:59.892Z,100686.25
2022-09-23T17:42:26.383Z,100691.31
2022-09-23T17:44:52.729Z,100687.34
2022-09-23T17:47:19.070Z,100684.25
2022-09-23T17:49:49.808Z,100682.16
2022-09-23T17:52:17.402Z,100686.38
2022-09-23T17:54:45.095Z,100691.22
2022-09-23T17:57:12.391Z,100694.38
2022-09-23T17:59:38.799Z,100694.81
2022-09-23T18:02:05.368Z,100692.53
2022-09-23T18:04:31.734Z,100691.31
2022-09-23T18:06:58.084Z,100687.34
2022-09-23T18:09:24.576Z,100685.06
2022-09-23T18:11:50.914Z,100686.31
2022-09-23T18:14:20.307Z,100684.03
2022-09-23T18:16:52.050Z,100681.75
2022-09-23T18:19:20.848Z,100689.28
2022-09-23T18:21:50.531Z,100685.31
2022-09-23T18:24:34.007Z,100686.56
2022-09-23T18:27:01.428Z,100683.47
2022-09-23T18:29:28.544Z,100682.00
2022-09-23T18:31:54.988Z,100690.59
2022-09-23T18:34:21.813Z,100682.66
2022-09-23T18:36:48.221Z,100686.63
2022-09-23T18:39:14.600Z,100678.91
2022-09-23T18:41:41.327Z,100667.41
2022-09-23T18:44:07.944Z,100676.63
2022-09-23T18:46:34.355Z,100666.38
2022-09-23T18:49:19.565Z,100664.94
2022-09-23T18:51:52.204Z,100668.72
2022-09-23T18:54:19.500Z,100661.81
2022-09-23T18:56:46.365Z,100666.84
2022-09-23T18:59:16.541Z,100660.78
2022-09-23T19:01:45.702Z,100670.22
2022-09-23T19:04:14.165Z,100671.25
2022-09-23T19:06:40.535Z,100669.78
2022-09-23T19:09:07.852Z,100666.47
2022-09-23T19:11:38.036Z,100665.84
2022-09-23T19:14:07.395Z,100675.03
2022-09-23T19:16:35.154Z,100674.63
2022-09-23T19:19:02.886Z,100666.91
2022-09-23T19:21:30.343Z,100673.63
2022-09-23T19:24:03.031Z,100673.81
2022-09-23T19:26:37.340Z,100673.41
2022-09-23T19:29:04.940Z,100671.13
2022-09-23T19:31:34.419Z,100675.75
2022-09-23T19:34:04.501Z,100669.88
2022-09-23T19:36:33.595Z,100677.41
2022-09-23T19:39:02.934Z,100677.81
2022-09-23T19:41:35.372Z,100670.09
2022-09-23T19:44:03.275Z,100666.72
2022-09-23T19:46:31.048Z,100672.59
2022-09-23T19:48:58.104Z,100675.53
2022-09-23T19:51:24.512Z,100669.66
2022-09-23T19:53:50.939Z,100667.19
2022-09-23T19:56:18.110Z,100668.44
2022-09-23T19:58:54.131Z,100668.44
2022-09-23T20:01:21.544Z,100672.63
2022-09-23T20:03:48.347Z,100669.47
2022-09-23T20:06:15.549Z,100672.59
2022-09-23T20:08:43.371Z,100673.88
2022-09-23T20:11:12.229Z,100668.84
2022-09-23T20:13:40.280Z,100664.03
2022-09-23T20:16:11.276Z,100666.34
2022-09-23T20:18:38.594Z,100667.59
2022-09-23T20:21:06.549Z,100666.97
2022-09-23T20:23:33.307Z,100664.69
2022-09-23T20:26:19.854Z,100656.72
2022-09-23T20:28:46.807Z,100662.41
2022-09-23T20:31:13.918Z,100660.69
2022-09-23T20:33:41.496Z,100658.41
2022-09-23T20:36:13.257Z,100655.69
2022-09-23T20:38:40.498Z,100663.44
2022-09-23T20:41:07.588Z,100660.72
2022-09-23T20:43:34.520Z,100665.53
2022-09-23T20:46:02.876Z,100670.94
2022-09-23T20:48:30.777Z,100663.88
2022-09-23T20:51:02.015Z,100660.09
2022-09-23T20:53:28.436Z,100669.28
2022-09-23T20:55:58.057Z,100660.31
2022-09-23T20:58:29.954Z,100659.44
2022-09-23T21:01:01.751Z,100660.31
2022-09-23T21:03:32.318Z,100661.75
2022-09-23T21:06:03.829Z,100656.34
2022-09-23T21:08:31.590Z,100656.75
2022-09-23T21:10:58.780Z,100661.34
2022-09-23T21:13:25.149Z,100665.09
2022-09-23T21:15:51.754Z,100658.84
2022-09-23T21:18:22.260Z,100663.63
2022-09-23T21:20:56.891Z,100657.56
2022-09-23T21:23:28.444Z,100649.84
2022-09-23T21:26:09.029Z,100649.25
2022-09-23T21:28:37.240Z,100647.97
2022-09-23T21:31:06.642Z,100641.06
2022-09-23T21:33:33.638Z,100636.25
2022-09-23T21:36:06.313Z,100643.16
2022-09-23T21:38:37.317Z,100645.03
2022-09-23T21:41:06.764Z,100647.97
2022-09-23T21:43:35.302Z,100649.19
2022-09-23T21:46:03.647Z,100643.13
2022-09-23T21:48:32.098Z,100641.66
2022-09-23T21:51:01.308Z,100643.53
2022-09-23T21:53:29.627Z,100645.81
2022-09-23T21:56:16.778Z,100644.13
2022-09-23T21:58:46.568Z,100644.56
2022-09-23T22:01:18.943Z,100646.63
2022-09-23T22:03:50.842Z,100650.41
2022-09-23T22:06:21.389Z,100638.25
2022-09-23T22:08:52.633Z,100646.41
2022-09-23T22:11:41.271Z,100642.22
2022-09-23T22:14:11.427Z,100646.19
2022-09-23T22:16:39.107Z,100642.22
2022-09-23T22:19:07.083Z,100642.63
2022-09-23T22:21:36.482Z,100649.94
2022-09-23T22:24:04.583Z,100642.00
2022-09-23T22:26:39.719Z,100641.16
2022-09-23T22:29:26.530Z,100642.41
2022-09-23T22:32:13.161Z,100636.34
2022-09-23T22:34:51.367Z,100625.91
2022-09-23T22:37:21.559Z,100633.00
2022-09-23T22:39:47.995Z,100626.09
2022-09-23T22:42:14.381Z,100624.44
2022-09-23T22:44:41.051Z,100618.19
2022-09-23T22:47:08.030Z,100622.75
2022-09-23T22:49:34.951Z,100617.56
2022-09-23T22:52:07.753Z,100611.50
2022-09-23T22:54:34.819Z,100614.63
2022-09-23T22:57:04.785Z,100621.09
2022-09-23T22:59:31.259Z,100606.91
2022-09-23T23:01:59.905Z,100614.38
2022-09-23T23:04:26.952Z,100612.91
2022-09-23T23:06:53.326Z,100612.09
2022-09-23T23:09:19.659Z,100609.38
2022-09-23T23:11:47.059Z,100606.03
2022-09-23T23:14:16.130Z,100615.00
2022-09-23T23:16:43.770Z,100603.31
2022-09-23T23:19:13.350Z,100608.75
2022-09-23T23:21:43.321Z,100606.03
2022-09-23T23:24:17.100Z,100609.56
2022-09-23T23:26:43.894Z,100604.38
2022-09-23T23:29:12.247Z,100604.38
2022-09-23T23:31:38.835Z,100602.69
2022-09-23T23:34:08.278Z,100598.09
2022-09-23T23:36:34.693Z,100591.84
2022-09-23T23:39:01.189Z,100584.75
2022-09-23T23:41:28.316Z,100593.06
2022-09-23T23:43:57.768Z,100593.91
2022-09-23T23:46:26.573Z,100595.19
2022-09-23T23:48:54.040Z,100597.88
2022-09-23T23:51:21.187Z,100592.66
2022-09-23T23:53:48.246Z,100593.72
2022-09-23T23:56:19.554Z,100599.13
2022-09-23T23:58:46.084Z,100585.97
